createdAt,value
2023-03-24T00:00:13.627Z,5.65
2023-03-24T00:03:21.019Z,5.69
2023-03-24T00:05:20.941Z,5.71
2023-03-24T00:07:21.097Z,5.79
2023-03-24T00:09:20.856Z,5.65
2023-03-24T00:11:20.867Z,5.6
2023-03-24T00:13:20.913Z,5.65
2023-03-24T00:15:20.856Z,5.61
2023-03-24T00:18:17.933Z,5.66
2023-03-24T00:20:17.963Z,5.55
2023-03-24T00:22:17.973Z,5.61
2023-03-24T00:24:17.921Z,5.61
2023-03-24T00:26:17.874Z,5.65
2023-03-24T00:28:17.881Z,5.58
2023-03-24T00:30:17.912Z,5.56
2023-03-24T00:33:28.105Z,5.44
2023-03-24T00:35:28.094Z,5.52
2023-03-24T00:37:28.109Z,5.56
2023-03-24T00:39:28.131Z,5.44
2023-03-24T00:41:28.066Z,5.45
2023-03-24T00:43:28.063Z,5.51
2023-03-24T00:45:28.116Z,5.45
2023-03-24T00:48:32.291Z,5.47
2023-03-24T00:50:32.533Z,5.37
2023-03-24T00:52:32.296Z,5.45
2023-03-24T00:54:32.259Z,5.4
2023-03-24T00:56:32.406Z,5.35
2023-03-24T00:58:32.451Z,5.33
2023-03-24T01:00:32.551Z,5.3
2023-03-24T01:02:32.494Z,5.3
2023-03-24T01:03:57.910Z,5.24
2023-03-24T01:05:57.917Z,5.1
2023-03-24T01:07:57.913Z,5.23
2023-03-24T01:09:57.947Z,5.19
2023-03-24T01:11:57.938Z,5.02
2023-03-24T01:13:57.877Z,5.03
2023-03-24T01:15:57.946Z,5.01
2023-03-24T01:18:54.947Z,5.08
2023-03-24T01:20:54.938Z,5.08
2023-03-24T01:22:54.929Z,5.03
2023-03-24T01:24:55.013Z,5.04
2023-03-24T01:26:54.971Z,4.89
2023-03-24T01:28:54.924Z,4.92
2023-03-24T01:30:54.990Z,4.87
2023-03-24T01:32:54.930Z,4.85
2023-03-24T01:34:52.766Z,4.85
2023-03-24T01:36:52.822Z,4.81
2023-03-24T01:38:52.753Z,4.79
2023-03-24T01:40:52.801Z,4.79
2023-03-24T01:42:52.791Z,4.84
2023-03-24T01:44:52.757Z,4.81
2023-03-24T01:46:52.805Z,4.79
2023-03-24T01:50:05.171Z,4.75
2023-03-24T01:52:05.133Z,4.64
2023-03-24T01:54:05.091Z,4.61
2023-03-24T01:56:05.131Z,4.6
2023-03-24T01:58:05.151Z,4.63
2023-03-24T02:00:05.082Z,4.64
2023-03-24T02:02:05.122Z,4.59
2023-03-24T02:04:20.364Z,4.65
2023-03-24T02:06:20.272Z,4.64
2023-03-24T02:08:20.296Z,4.62
2023-03-24T02:10:20.266Z,4.64
2023-03-24T02:12:20.283Z,4.63
2023-03-24T02:14:20.284Z,4.63
2023-03-24T02:16:20.348Z,4.64
2023-03-24T02:18:20.344Z,4.63
2023-03-24T02:20:06.450Z,4.59
2023-03-24T02:22:06.445Z,4.57
2023-03-24T02:24:06.476Z,4.52
2023-03-24T02:26:06.454Z,4.6
2023-03-24T02:28:06.484Z,4.47
2023-03-24T02:30:06.508Z,4.48
2023-03-24T02:32:06.434Z,4.59
2023-03-24T02:35:36.677Z,4.53
2023-03-24T02:37:36.633Z,4.5
2023-03-24T02:39:36.654Z,4.52
2023-03-24T02:41:36.632Z,4.55
2023-03-24T02:43:36.667Z,4.42
2023-03-24T02:45:36.632Z,4.23
2023-03-24T02:47:36.663Z,4.3
2023-03-24T02:50:06.180Z,4.44
2023-03-24T02:52:06.178Z,4.48
2023-03-24T02:54:06.165Z,4.53
2023-03-24T02:56:06.179Z,4.52
2023-03-24T02:58:06.152Z,4.56
2023-03-24T03:00:06.163Z,4.6
2023-03-24T03:02:06.376Z,4.49
2023-03-24T03:05:31.706Z,4.65
2023-03-24T03:07:31.651Z,4.68
2023-03-24T03:09:31.655Z,4.63
2023-03-24T03:11:31.687Z,4.62
2023-03-24T03:13:31.670Z,4.64
2023-03-24T03:15:31.743Z,4.72
2023-03-24T03:17:31.722Z,4.63
2023-03-24T03:20:29.336Z,4.58
2023-03-24T03:22:29.386Z,4.43
2023-03-24T03:24:29.340Z,4.38
2023-03-24T03:26:29.385Z,4.42
2023-03-24T03:28:29.329Z,4.56
2023-03-24T03:30:29.352Z,4.59
2023-03-24T03:32:29.390Z,4.58
2023-03-24T03:36:15.792Z,4.53
2023-03-24T03:38:15.833Z,4.56
2023-03-24T03:40:15.806Z,4.53
2023-03-24T03:42:15.803Z,4.5
2023-03-24T03:44:15.772Z,4.5
2023-03-24T03:46:15.804Z,4.48
2023-03-24T03:48:15.829Z,4.44
2023-03-24T03:51:03.065Z,4.52
2023-03-24T03:52:53.894Z,4.48
2023-03-24T03:54:53.893Z,4.46
2023-03-24T03:56:53.952Z,4.41
2023-03-24T03:58:53.857Z,4.37
2023-03-24T04:00:53.873Z,4.35
2023-03-24T04:02:54.002Z,4.32
2023-03-24T04:06:18.853Z,4.21
2023-03-24T04:08:18.816Z,4.33
2023-03-24T04:10:18.747Z,4.31
2023-03-24T04:12:18.834Z,4.24
2023-03-24T04:14:18.783Z,4.27
2023-03-24T04:16:18.768Z,4.27
2023-03-24T04:18:18.790Z,4.13
2023-03-24T04:21:17.038Z,4.15
2023-03-24T04:23:17.086Z,3.95
2023-03-24T04:25:16.994Z,3.82
2023-03-24T04:27:16.997Z,3.61
2023-03-24T04:29:17.060Z,3.85
2023-03-24T04:31:17.028Z,4.03
2023-03-24T04:33:17.030Z,4.15
2023-03-24T04:36:08.130Z,4.21
2023-03-24T04:38:08.192Z,4.33
2023-03-24T04:40:08.202Z,4.41
2023-03-24T04:42:08.159Z,4.4
2023-03-24T04:44:08.131Z,4.35
2023-03-24T04:46:08.190Z,4.44
2023-03-24T04:48:08.113Z,4.51
2023-03-24T04:50:08.151Z,4.46
2023-03-24T04:51:16.041Z,4.39
2023-03-24T04:53:16.040Z,4.4
2023-03-24T04:55:16.099Z,4.06
2023-03-24T04:57:16.079Z,4.23
2023-03-24T04:59:16.086Z,4.5
2023-03-24T05:01:16.020Z,4.62
2023-03-24T05:03:16.068Z,4.72
2023-03-24T05:05:16.185Z,4.78
2023-03-24T05:07:16.507Z,4.83
2023-03-24T05:09:16.473Z,4.94
2023-03-24T05:11:16.561Z,4.85
2023-03-24T05:13:16.475Z,5.46
2023-03-24T05:15:16.733Z,7.93
2023-03-24T05:17:16.466Z,9.65
2023-03-24T05:19:16.525Z,9.76
2023-03-24T05:22:21.707Z,11.92
2023-03-24T05:24:21.723Z,12.23
2023-03-24T05:26:21.722Z,13.96
2023-03-24T05:28:21.730Z,12.56
2023-03-24T05:30:21.778Z,12.96
2023-03-24T05:32:21.669Z,12.46
2023-03-24T05:34:21.957Z,11.74
2023-03-24T05:37:03.407Z,12.02
2023-03-24T05:39:03.583Z,12.59
2023-03-24T05:41:03.425Z,12.32
2023-03-24T05:43:03.433Z,11.65
2023-03-24T05:45:03.458Z,11.13
2023-03-24T05:47:03.410Z,10.99
2023-03-24T05:49:03.447Z,10.99
2023-03-24T05:52:08.881Z,10.62
2023-03-24T05:54:09.391Z,10.21
2023-03-24T05:56:08.917Z,10.02
2023-03-24T05:58:09.239Z,9.75
2023-03-24T06:00:09.084Z,9.54
2023-03-24T06:02:09.017Z,9.27
2023-03-24T06:04:09.298Z,9.47
2023-03-24T06:07:40.532Z,9.12
2023-03-24T06:09:42.327Z,9.1
2023-03-24T06:11:41.554Z,9.57
2023-03-24T06:13:39.963Z,9.62
2023-03-24T06:15:40.044Z,9.6
2023-03-24T06:17:40.049Z,9.16
2023-03-24T06:19:39.915Z,9.05
2023-03-24T06:22:31.623Z,9.03
2023-03-24T06:24:31.550Z,8.54
2023-03-24T06:26:31.529Z,9.04
2023-03-24T06:28:31.527Z,9.33
2023-03-24T06:30:31.749Z,8.97
2023-03-24T06:32:31.757Z,9.04
2023-03-24T06:34:31.709Z,9.29
2023-03-24T06:37:44.316Z,9.4
2023-03-24T06:39:44.269Z,9.49
2023-03-24T06:41:44.339Z,9.6
2023-03-24T06:43:44.320Z,9.73
2023-03-24T06:45:44.746Z,9.35
2023-03-24T06:47:44.413Z,8.86
2023-03-24T06:49:44.367Z,9.39
2023-03-24T06:53:26.154Z,9.72
2023-03-24T06:55:26.175Z,9.6
2023-03-24T06:57:26.315Z,10.04
2023-03-24T06:59:26.211Z,10.16
2023-03-24T07:01:26.471Z,10.5
2023-03-24T07:03:26.280Z,10.67
2023-03-24T07:05:26.116Z,9.61
2023-03-24T07:10:12.507Z,9.54
2023-03-24T07:12:14.389Z,10.06
2023-03-24T07:14:12.473Z,10.09
2023-03-24T07:16:12.539Z,10.49
2023-03-24T07:18:12.697Z,10.74
2023-03-24T07:20:12.872Z,10.39
2023-03-24T07:23:07.654Z,10.24
2023-03-24T07:25:07.565Z,10.66
2023-03-24T07:27:07.576Z,11.2
2023-03-24T07:29:07.865Z,11.08
2023-03-24T07:31:07.733Z,11.65
2023-03-24T07:33:07.635Z,10.89
2023-03-24T07:35:07.680Z,11.72
2023-03-24T07:38:04.775Z,11.31
2023-03-24T07:40:04.776Z,11.54
2023-03-24T07:42:04.874Z,11.54
2023-03-24T07:44:04.779Z,11.94
2023-03-24T07:46:04.914Z,11.78
2023-03-24T07:48:04.978Z,11.74
2023-03-24T07:50:04.878Z,12.38
2023-03-24T07:52:04.994Z,11.72
2023-03-24T07:54:09.097Z,11.88
2023-03-24T07:56:09.030Z,11.87
2023-03-24T07:58:09.029Z,12.19
2023-03-24T08:00:09.023Z,12.5
2023-03-24T08:02:08.967Z,13.16
2023-03-24T08:04:08.994Z,12.84
2023-03-24T08:06:08.951Z,13.16
2023-03-24T08:08:52.806Z,13.54
2023-03-24T08:10:52.802Z,13.26
2023-03-24T08:12:52.779Z,13.42
2023-03-24T08:14:52.817Z,14.01
2023-03-24T08:16:52.757Z,13.7
2023-03-24T08:18:52.773Z,13.98
2023-03-24T08:20:52.813Z,13.8
2023-03-24T08:23:48.831Z,13.77
2023-03-24T08:25:48.918Z,13.9
2023-03-24T08:27:48.643Z,14.43
2023-03-24T08:29:48.634Z,13.52
2023-03-24T08:31:48.767Z,13.96
2023-03-24T08:33:48.643Z,14.8
2023-03-24T08:35:48.896Z,14.41
2023-03-24T08:39:12.873Z,15.3
2023-03-24T08:41:12.831Z,15.93
2023-03-24T08:43:12.835Z,15.14
2023-03-24T08:45:12.789Z,14.61
2023-03-24T08:47:12.818Z,15.23
2023-03-24T08:49:12.798Z,15.77
2023-03-24T08:51:12.772Z,15.84
2023-03-24T08:54:03.888Z,16.01
2023-03-24T08:56:03.783Z,15.38
2023-03-24T08:58:03.872Z,15.48
2023-03-24T09:00:03.770Z,14.98
2023-03-24T09:02:03.838Z,15.99
2023-03-24T09:04:03.791Z,16.41
2023-03-24T09:06:03.776Z,16.37
2023-03-24T09:09:34.488Z,16.55
2023-03-24T09:11:35.057Z,17.13
2023-03-24T09:13:34.407Z,17.39
2023-03-24T09:15:34.632Z,17.52
2023-03-24T09:17:34.321Z,16.51
2023-03-24T09:19:36.428Z,17.12
2023-03-24T09:21:34.298Z,17.97
2023-03-24T09:24:30.618Z,18.39
2023-03-24T09:26:30.573Z,17.95
2023-03-24T09:28:30.596Z,17.49
2023-03-24T09:30:31.352Z,17.72
2023-03-24T09:32:30.591Z,17.42
2023-03-24T09:34:30.580Z,17.62
2023-03-24T09:36:31.203Z,17.87
2023-03-24T09:39:23.880Z,18.41
2023-03-24T09:41:23.870Z,18.75
2023-03-24T09:43:23.817Z,18.19
2023-03-24T09:45:23.852Z,18.28
2023-03-24T09:47:23.982Z,18.25
2023-03-24T09:49:23.851Z,19.02
2023-03-24T09:51:23.829Z,19.58
2023-03-24T09:53:23.815Z,19.95
2023-03-24T09:54:47.021Z,19.49
2023-03-24T09:56:48.709Z,19.18
2023-03-24T09:58:47.134Z,18.92
2023-03-24T10:00:47.181Z,18.97
2023-03-24T10:02:49.117Z,19.41
2023-03-24T10:04:47.152Z,19.35
2023-03-24T10:06:46.995Z,19.21
2023-03-24T10:10:26.989Z,19.69
2023-03-24T10:12:26.946Z,19.5
2023-03-24T10:14:26.953Z,19.59
2023-03-24T10:16:27.244Z,19.4
2023-03-24T10:18:27.065Z,19.86
2023-03-24T10:20:26.977Z,20.21
2023-03-24T10:22:26.910Z,20.61
2023-03-24T10:25:12.417Z,20.86
2023-03-24T10:27:12.478Z,20.3
2023-03-24T10:29:12.356Z,19.99
2023-03-24T10:31:12.526Z,20.07
2023-03-24T10:33:12.368Z,19.8
2023-03-24T10:35:12.440Z,20.33
2023-03-24T10:37:12.376Z,19.6
2023-03-24T10:40:09.988Z,20.28
2023-03-24T10:42:10.060Z,20.18
2023-03-24T10:44:10.004Z,20.56
2023-03-24T10:46:09.989Z,20.74
2023-03-24T10:48:10.020Z,20.49
2023-03-24T10:50:12.862Z,20.53
2023-03-24T10:52:10.086Z,20.53
2023-03-24T10:55:19.491Z,21.35
2023-03-24T10:57:19.172Z,21.12
2023-03-24T10:59:19.139Z,21.35
2023-03-24T11:01:19.165Z,21.04
2023-03-24T11:03:19.234Z,21
2023-03-24T11:05:19.131Z,19.56
2023-03-24T11:07:19.243Z,20.28
2023-03-24T11:10:46.137Z,21.29
2023-03-24T11:12:46.232Z,21.14
2023-03-24T11:14:46.116Z,20.7
2023-03-24T11:16:46.163Z,20.91
2023-03-24T11:18:46.223Z,20.36
2023-03-24T11:20:46.157Z,20.82
2023-03-24T11:22:46.158Z,20.55
2023-03-24T11:26:04.031Z,21.4
2023-03-24T11:28:04.222Z,21.33
2023-03-24T11:30:04.150Z,21.43
2023-03-24T11:32:04.297Z,21.74
2023-03-24T11:34:03.974Z,21.16
2023-03-24T11:36:06.070Z,20.67
2023-03-24T11:38:03.930Z,20.9
2023-03-24T11:41:10.823Z,20.39
2023-03-24T11:43:10.532Z,21.01
2023-03-24T11:45:10.690Z,20.99
2023-03-24T11:47:11.069Z,21.57
2023-03-24T11:49:10.715Z,21.88
2023-03-24T11:51:10.907Z,21.7
2023-03-24T11:53:10.756Z,21.92
2023-03-24T11:56:10.647Z,21.22
2023-03-24T11:58:10.301Z,21.2
2023-03-24T12:00:10.292Z,21.77
2023-03-24T12:02:10.352Z,22.14
2023-03-24T12:04:10.314Z,22.19
2023-03-24T12:06:10.346Z,21.54
2023-03-24T12:08:10.288Z,21.27
2023-03-24T12:11:47.827Z,21.89
2023-03-24T12:13:47.768Z,21.46
2023-03-24T12:15:48.319Z,21.57
2023-03-24T12:17:47.813Z,22.29
2023-03-24T12:19:47.741Z,22.44
2023-03-24T12:21:47.761Z,22.47
2023-03-24T12:23:47.733Z,21.5
2023-03-24T12:26:23.636Z,22.08
2023-03-24T12:28:23.647Z,22.12
2023-03-24T12:30:23.692Z,22.62
2023-03-24T12:32:23.651Z,22.08
2023-03-24T12:34:23.634Z,21.64
2023-03-24T12:36:23.619Z,21.98
2023-03-24T12:38:23.608Z,21.79
2023-03-24T12:42:09.069Z,21.79
2023-03-24T12:44:09.054Z,21.7
2023-03-24T12:46:09.093Z,21.83
2023-03-24T12:48:09.010Z,22.03
2023-03-24T12:50:09.076Z,21.45
2023-03-24T12:52:09.002Z,21.52
2023-03-24T12:54:09.010Z,21.28
2023-03-24T12:57:02.550Z,21.85
2023-03-24T12:59:02.394Z,22.29
2023-03-24T13:01:02.484Z,21.88
2023-03-24T13:03:02.509Z,21.62
2023-03-24T13:05:02.455Z,21.73
2023-03-24T13:07:02.431Z,21.59
2023-03-24T13:09:02.415Z,21.09
2023-03-24T13:12:11.907Z,21.07
2023-03-24T13:14:11.962Z,20.66
2023-03-24T13:16:11.949Z,20.63
2023-03-24T13:18:12.089Z,21.25
2023-03-24T13:20:11.905Z,20.84
2023-03-24T13:22:11.916Z,21.66
2023-03-24T13:24:13.679Z,21.57
2023-03-24T13:26:54.338Z,20.43
2023-03-24T13:28:54.550Z,20.29
2023-03-24T13:30:54.328Z,21.03
2023-03-24T13:32:54.424Z,21.6
2023-03-24T13:34:54.359Z,21.48
2023-03-24T13:36:54.316Z,20.84
2023-03-24T13:38:54.345Z,20.89
2023-03-24T13:40:54.529Z,21.09
2023-03-24T13:42:06.583Z,21.04
2023-03-24T13:44:06.566Z,20.69
2023-03-24T13:46:06.650Z,20.99
2023-03-24T13:48:06.631Z,20.36
2023-03-24T13:50:06.617Z,20.83
2023-03-24T13:52:06.578Z,20.68
2023-03-24T13:54:06.595Z,20.97
2023-03-24T13:56:07.043Z,21.39
2023-03-24T13:57:14.040Z,21.61
2023-03-24T13:59:14.093Z,21.54
2023-03-24T14:01:14.091Z,21.79
2023-03-24T14:03:16.973Z,21.65
2023-03-24T14:05:14.062Z,21.5
2023-03-24T14:07:14.081Z,21.17
2023-03-24T14:09:14.260Z,20.86
2023-03-24T14:11:14.123Z,21.12
2023-03-24T14:14:59.337Z,21.33
2023-03-24T14:16:59.304Z,21.32
2023-03-24T14:18:59.268Z,21.22
2023-03-24T14:20:59.201Z,20.51
2023-03-24T14:24:59.170Z,20.87
2023-03-24T14:27:37.727Z,20.82
2023-03-24T14:29:37.726Z,20.91
2023-03-24T14:31:37.747Z,20.93
2023-03-24T14:33:37.785Z,20.68
2023-03-24T14:35:37.858Z,20.77
2023-03-24T14:37:37.706Z,20.85
2023-03-24T14:39:37.719Z,20.93
2023-03-24T14:41:37.743Z,20.93
2023-03-24T14:43:11.934Z,20.93
2023-03-24T14:45:14.052Z,20.85
2023-03-24T14:47:11.956Z,20.75
2023-03-24T14:49:11.934Z,20.74
2023-03-24T14:51:11.911Z,20.63
2023-03-24T14:53:11.887Z,20.72
2023-03-24T14:55:11.980Z,20.67
2023-03-24T14:57:53.560Z,20.57
2023-03-24T14:59:51.435Z,20.5
2023-03-24T15:01:51.485Z,20.36
2023-03-24T15:03:51.515Z,20.38
2023-03-24T15:05:51.389Z,20.36
2023-03-24T15:07:51.614Z,20.35
2023-03-24T15:09:51.427Z,20.36
2023-03-24T15:11:51.454Z,20.31
2023-03-24T15:13:40.907Z,20.3
2023-03-24T15:15:40.831Z,20.32
2023-03-24T15:17:40.894Z,20.27
2023-03-24T15:19:40.813Z,20.32
2023-03-24T15:21:40.892Z,20.29
2023-03-24T15:23:40.851Z,20.25
2023-03-24T15:25:40.820Z,20.15
2023-03-24T15:28:24.507Z,20.14
2023-03-24T15:30:24.466Z,20.18
2023-03-24T15:32:24.531Z,20.15
2023-03-24T15:34:24.477Z,20.13
2023-03-24T15:36:24.499Z,20.09
2023-03-24T15:38:24.545Z,20.07
2023-03-24T15:40:24.492Z,19.99
2023-03-24T15:44:06.322Z,19.87
2023-03-24T15:46:12.197Z,19.79
2023-03-24T15:48:06.405Z,19.86
2023-03-24T15:50:06.436Z,19.67
2023-03-24T15:52:06.319Z,19.74
2023-03-24T15:54:06.870Z,19.66
2023-03-24T15:56:06.734Z,19.67
2023-03-24T15:58:59.201Z,19.49
2023-03-24T16:00:59.194Z,19.39
2023-03-24T16:02:59.223Z,19.27
2023-03-24T16:05:08.081Z,19.19
2023-03-24T16:06:59.197Z,19.2
2023-03-24T16:08:59.235Z,19.14
2023-03-24T16:10:59.171Z,19.09
2023-03-24T16:14:01.677Z,18.92
2023-03-24T16:16:01.697Z,18.81
2023-03-24T16:18:01.637Z,18.67
2023-03-24T16:20:01.613Z,18.56
2023-03-24T16:22:01.635Z,18.41
2023-03-24T16:24:01.650Z,18.32
2023-03-24T16:26:01.619Z,18.19
2023-03-24T16:29:38.506Z,17.99
2023-03-24T16:31:38.444Z,17.85
2023-03-24T16:33:38.448Z,17.75
2023-03-24T16:35:38.513Z,17.65
2023-03-24T16:37:38.508Z,17.47
2023-03-24T16:39:38.476Z,17.26
2023-03-24T16:41:38.454Z,17.18
2023-03-24T16:44:28.345Z,17.02
2023-03-24T16:46:28.392Z,16.87
2023-03-24T16:48:28.286Z,16.7
2023-03-24T16:50:28.341Z,16.64
2023-03-24T16:52:28.328Z,16.55
2023-03-24T16:54:28.316Z,16.43
2023-03-24T16:56:28.705Z,16.32
2023-03-24T16:59:39.087Z,16.14
2023-03-24T17:01:38.974Z,16.06
2023-03-24T17:03:39.174Z,15.96
2023-03-24T17:05:38.899Z,15.86
2023-03-24T17:07:38.935Z,15.76
2023-03-24T17:09:38.900Z,15.65
2023-03-24T17:11:38.913Z,15.58
2023-03-24T17:14:35.797Z,15.44
2023-03-24T17:16:35.832Z,15.41
2023-03-24T17:18:35.835Z,15.3
2023-03-24T17:20:35.763Z,15.22
2023-03-24T17:22:35.826Z,15.15
2023-03-24T17:24:36.030Z,15.02
2023-03-24T17:26:35.794Z,14.93
2023-03-24T17:30:00.241Z,14.81
2023-03-24T17:32:00.223Z,14.71
2023-03-24T17:34:06.030Z,14.73
2023-03-24T17:36:00.253Z,14.68
2023-03-24T17:38:00.204Z,14.6
2023-03-24T17:40:00.265Z,14.49
2023-03-24T17:42:00.228Z,14.29
2023-03-24T17:45:31.857Z,14.37
2023-03-24T17:47:31.861Z,14.29
2023-03-24T17:49:31.878Z,14.25
2023-03-24T17:51:31.834Z,14.21
2023-03-24T17:53:31.851Z,14.19
2023-03-24T17:55:31.891Z,14.04
2023-03-24T17:57:31.800Z,13.88
2023-03-24T18:00:00.418Z,14.03
2023-03-24T18:02:00.432Z,13.98
2023-03-24T18:04:00.567Z,13.89
2023-03-24T18:06:00.484Z,13.93
2023-03-24T18:08:00.455Z,13.99
2023-03-24T18:10:00.402Z,14.06
2023-03-24T18:12:00.404Z,14.21
2023-03-24T18:14:00.435Z,14.35
2023-03-24T18:15:44.570Z,14.38
2023-03-24T18:17:44.494Z,14.43
2023-03-24T18:19:44.534Z,14.48
2023-03-24T18:21:44.571Z,14.54
2023-03-24T18:23:44.500Z,14.54
2023-03-24T18:25:44.491Z,14.59
2023-03-24T18:27:44.527Z,14.59
2023-03-24T18:30:33.796Z,14.57
2023-03-24T18:32:33.845Z,14.58
2023-03-24T18:34:33.895Z,14.57
2023-03-24T18:36:33.759Z,14.6
2023-03-24T18:38:33.886Z,14.5
2023-03-24T18:40:33.786Z,14.57
2023-03-24T18:42:33.820Z,14.56
2023-03-24T18:45:49.312Z,14.5
2023-03-24T18:47:49.419Z,14.47
2023-03-24T18:49:49.105Z,14.42
2023-03-24T18:51:49.077Z,14.49
2023-03-24T18:53:49.107Z,14.44
2023-03-24T18:55:49.308Z,14.29
2023-03-24T18:57:49.202Z,14.45
2023-03-24T19:01:23.096Z,14.51
2023-03-24T19:03:22.767Z,14.47
2023-03-24T19:05:22.657Z,14.4
2023-03-24T19:07:22.610Z,14.45
2023-03-24T19:09:22.730Z,14.49
2023-03-24T19:11:22.643Z,14.45
2023-03-24T19:13:22.608Z,14.42
2023-03-24T19:16:37.218Z,14.39
2023-03-24T19:18:37.138Z,14.36
2023-03-24T19:20:37.161Z,14.32
2023-03-24T19:22:37.198Z,14.34
2023-03-24T19:24:37.166Z,14.32
2023-03-24T19:26:37.194Z,14.26
2023-03-24T19:28:37.654Z,14.24
2023-03-24T19:30:56.410Z,14.31
2023-03-24T19:32:56.640Z,14.24
2023-03-24T19:34:56.364Z,14.25
2023-03-24T19:36:56.431Z,14.31
2023-03-24T19:38:56.668Z,14.22
2023-03-24T19:40:56.416Z,14.22
2023-03-24T19:42:56.374Z,14.31
2023-03-24T19:44:56.341Z,14.31
2023-03-24T19:46:40.746Z,14.21
2023-03-24T19:48:40.654Z,14.32
2023-03-24T19:50:40.806Z,14.3
2023-03-24T19:52:40.785Z,14.35
2023-03-24T19:54:41.017Z,14.28
2023-03-24T19:56:40.694Z,14.28
2023-03-24T19:58:40.475Z,14.33
2023-03-24T20:01:40.070Z,14.31
2023-03-24T20:03:40.115Z,14.33
2023-03-24T20:05:40.010Z,13.94
2023-03-24T20:07:40.052Z,13.57
2023-03-24T20:09:40.046Z,13.81
2023-03-24T20:11:40.738Z,13.9
2023-03-24T20:13:40.064Z,13.84
2023-03-24T20:16:21.366Z,13.82
2023-03-24T20:18:21.283Z,13.7
2023-03-24T20:20:21.376Z,13.78
2023-03-24T20:22:21.384Z,13.75
2023-03-24T20:24:21.326Z,13.74
2023-03-24T20:26:21.318Z,13.55
2023-03-24T20:28:21.298Z,13.39
2023-03-24T20:30:21.340Z,13.39
2023-03-24T20:32:14.250Z,13.38
2023-03-24T20:34:14.323Z,13.32
2023-03-24T20:36:14.260Z,13.3
2023-03-24T20:38:14.249Z,13.29
2023-03-24T20:40:14.416Z,13.19
2023-03-24T20:42:14.313Z,13.13
2023-03-24T20:44:14.244Z,13.07
2023-03-24T20:47:22.856Z,12.82
2023-03-24T20:49:22.744Z,12.72
2023-03-24T20:51:22.660Z,12.66
2023-03-24T20:53:22.685Z,12.72
2023-03-24T20:55:22.716Z,12.62
2023-03-24T20:57:22.651Z,12.63
2023-03-24T20:59:22.669Z,12.58
2023-03-24T21:02:42.773Z,12.32
2023-03-24T21:04:42.504Z,12.27
2023-03-24T21:06:42.513Z,12.22
2023-03-24T21:08:44.657Z,12.17
2023-03-24T21:10:42.537Z,12.16
2023-03-24T21:12:52.628Z,11.98
2023-03-24T21:14:42.549Z,12
2023-03-24T21:17:35.162Z,11.95
2023-03-24T21:19:35.243Z,11.85
2023-03-24T21:21:35.157Z,11.89
2023-03-24T21:23:35.162Z,11.91
2023-03-24T21:25:35.225Z,11.93
2023-03-24T21:27:35.206Z,11.87
2023-03-24T21:29:35.228Z,11.6
2023-03-24T21:32:18.705Z,11.59
2023-03-24T21:34:18.631Z,11.46
2023-03-24T21:36:18.673Z,11.37
2023-03-24T21:38:18.822Z,11.36
2023-03-24T21:40:18.703Z,11.29
2023-03-24T21:42:18.638Z,11.38
2023-03-24T21:44:18.716Z,11.3
2023-03-24T21:46:18.683Z,11.18
2023-03-24T21:47:29.874Z,11.13
2023-03-24T21:49:29.877Z,11.04
2023-03-24T21:51:29.959Z,11.04
2023-03-24T21:53:29.870Z,11.05
2023-03-24T21:55:29.871Z,11.15
2023-03-24T21:57:29.932Z,11.11
2023-03-24T21:59:29.925Z,11.1
2023-03-24T22:01:29.920Z,11.04
2023-03-24T22:02:45.321Z,11.03
2023-03-24T22:04:45.354Z,10.88
2023-03-24T22:06:45.401Z,10.79
2023-03-24T22:08:45.270Z,10.97
2023-03-24T22:10:45.289Z,10.87
2023-03-24T22:12:45.320Z,10.8
2023-03-24T22:14:45.250Z,10.72
2023-03-24T22:18:03.374Z,10.69
2023-03-24T22:20:03.308Z,10.7
2023-03-24T22:22:03.298Z,10.65
2023-03-24T22:24:03.361Z,10.56
2023-03-24T22:26:03.284Z,10.59
2023-03-24T22:28:03.321Z,10.61
2023-03-24T22:30:03.278Z,10.51
2023-03-24T22:33:21.770Z,10.45
2023-03-24T22:35:21.719Z,10.24
2023-03-24T22:37:21.714Z,10.34
2023-03-24T22:39:21.764Z,10.34
2023-03-24T22:41:21.669Z,10.36
2023-03-24T22:43:21.692Z,10.33
2023-03-24T22:45:21.761Z,10.34
2023-03-24T22:48:05.820Z,10.16
2023-03-24T22:50:05.732Z,10.16
2023-03-24T22:52:05.699Z,10.1
2023-03-24T22:54:05.830Z,10.01
2023-03-24T22:56:05.689Z,9.98
2023-03-24T22:58:05.759Z,9.99
2023-03-24T23:00:05.690Z,9.97
2023-03-24T23:02:09.756Z,10.03
2023-03-24T23:03:57.520Z,9.96
2023-03-24T23:05:57.505Z,9.96
2023-03-24T23:07:57.483Z,9.96
2023-03-24T23:09:57.636Z,9.81
2023-03-24T23:11:57.522Z,9.76
2023-03-24T23:13:57.466Z,9.91
2023-03-24T23:15:57.554Z,9.8
2023-03-24T23:18:56.726Z,9.8
2023-03-24T23:20:56.755Z,9.78
2023-03-24T23:22:56.749Z,9.72
2023-03-24T23:25:00.394Z,9.67
2023-03-24T23:26:56.780Z,9.65
2023-03-24T23:28:56.733Z,9.65
2023-03-24T23:30:56.712Z,9.62
2023-03-24T23:33:44.914Z,9.46
2023-03-24T23:35:44.847Z,9.47
2023-03-24T23:37:44.841Z,9.56
2023-03-24T23:39:44.855Z,9.51
2023-03-24T23:41:44.862Z,9.41
2023-03-24T23:43:44.931Z,9.46
2023-03-24T23:45:44.860Z,9.56
2023-03-24T23:47:44.854Z,9.52
2023-03-24T23:49:30.661Z,9.45
2023-03-24T23:51:30.612Z,9.35
2023-03-24T23:53:30.622Z,9.4
2023-03-24T23:55:30.643Z,9.45
2023-03-24T23:57:30.584Z,9.24
2023-03-24T23:59:30.638Z,9.26
